Metar Cercanos

 

LEPA - Palma De Mallorc, Spain
Distance from station: ONO 38km
Actualización: 24/05/2018 23:30
Despejado
Despejado
 Viento del ENE
Viento: ENE 13 km/h
Temperatura: 19°C
Rocío: 12°C
Humedad: 64%
Barómetro: 1015 hPa
Resumen: Despejado
Visibility: greater than 10 km
2018/05/24 21:30 LEPA 242130Z 06007KT CAVOK 19/12 Q1015 NOSIG
LEMH - Mahon/Menorca Is, Spain
Distance from station: ENE 105km
Actualización: 24/05/2018 23:30
Despejado
Despejado
 Viento del E
Viento: E 17 km/h
Temperatura: 18°C
Rocío: 16°C
Humedad: 88%
Barómetro: 1016 hPa
Resumen: Despejado
Visibility: greater than 10 km
2018/05/24 21:30 LEMH 242130Z 09009KT CAVOK 18/16 Q1016
 
LEIB - Ibiza/Es Codola, Spain
Distance from station: OSO 165km
Actualización: 24/05/2018 23:30
Few Clouds
Few Clouds
 Viento del ENE
Viento: ENE 28 km/h
Temperatura: 20°C
Rocío: 15°C
Humedad: 73%
Barómetro: 1013 hPa
Clouds: Few Clouds
Visibility: 10 km
Cloud details: Few Clouds 305 m
2018/05/24 21:30 LEIB 242130Z 06015KT 9999 FEW010 20/15 Q1013 NOSIG
LEBL - Barcelona Airpor, Spain
Distance from station: NNO 225km
Actualización: 24/05/2018 23:30
Few Clouds
Few Clouds
 Viento del ENE
Viento: ENE 7 km/h
Temperatura: 20°C
Rocío: 16°C
Humedad: 78%
Barómetro: 1016 hPa
Clouds: Few Clouds
Visibility: 10 km
Cloud details: Few Clouds 1219 m
2018/05/24 21:30 LEBL 242130Z 06004KT 9999 FEW040 20/16 Q1016 NOSIG
 
LEVC - Valencia (civ/Mi, Spain
Distance from station: NO 188km
Actualización: 24/05/2018 23:30
Despejado
Despejado
 Viento del NE
Viento: NE 9 km/h
Temperatura: 21°C
Rocío: 13°C
Humedad: 60%
Barómetro: 1015 hPa
Resumen: Despejado
Visibility: greater than 10 km
2018/05/24 21:30 LEVC 242130Z 04005KT 350V080 CAVOK 21/13 Q1015 NOSIG
LEGE - Gerona/Costa Bra, Spain
Distance from station: N 276km
Actualización: 24/05/2018 23:30
Despejado
Despejado
 Viento del calm
Viento: Calma
Temperatura: 16°C
Rocío: 13°C
Humedad: 83%
Barómetro: 1017 hPa
Resumen: Despejado
Visibility: greater than 10 km
2018/05/24 21:30 LEGE 242130Z 00000KT CAVOK 16/13 Q1017
 
LEAL - Alicante/El Alte, Spain
Distance from station: OSO 344km
Actualización: 01/01/1970 01:00
NOT Current
unable to load LEAL data RC=404 Not Found
unable to load LEAL data RC=404 Not Found
 
LEAM - Almeria Airport, Spain
Distance from station: SSO 56km
Actualización: 24/05/2018 23:30
Despejado
Despejado
 Viento del E
Viento: E 6 km/h
Temperatura: 20°C
Rocío: 15°C
Humedad: 73%
Barómetro: 1011 hPa
Clouds: Despejado
Visibility: 10 km
2018/05/24 21:30 LEAM 242130Z AUTO 09003KT 060V140 9999 NCD 20/15 Q1011
 
LEZG - Zaragoza (mil/Ci, Spain
Distance from station: NO 431km
Actualización: 24/05/2018 23:30
Despejado
Despejado
 Viento del ESE
Viento: ESE 22 km/h
Temperatura: 22°C
Rocío: 9°C
Humedad: 44%
Barómetro: 1014 hPa
Resumen: Despejado
Visibility: greater than 10 km
2018/05/24 21:30 LEZG 242130Z 11012KT CAVOK 22/09 Q1014
LEMD - Madrid/Barajas, Spain
Distance from station: ONO 234km
Actualización: 24/05/2018 23:30
Few Clouds
Few Clouds
 Viento del SE
Viento: SE 31 km/h
Temperatura: 22°C
Rocío: 9°C
Humedad: 44%
Barómetro: 1013 hPa
Clouds: Few Clouds
Visibility: 10 km
Cloud details: Few Clouds 1219 m
2018/05/24 21:30 LEMD 242130Z 14017KT 110V170 9999 FEW040TCU 22/09 Q1013 TEMPO TSRA FEW030CB
 
LEGR - Granada Airport, Spain
Distance from station: OSO 62km
Actualización: 24/05/2018 23:30
Few Clouds
Few Clouds
 Viento del OSO
Viento: OSO 15 km/h
Temperatura: 16°C
Rocío: 11°C
Humedad: 72%
Barómetro: 1015 hPa
Clouds: Few Clouds
Visibility: 10 km
Cloud details: Few Clouds 1219 m
2018/05/24 21:30 LEGR 242130Z 25008KT 9999 FEW040 16/11 Q1015
LEMG - Malaga (civ/Mil), Spain
Distance from station: OSO 227km
Actualización: 24/05/2018 23:30
Parcialmente nuboso
Parcialmente nuboso
 Viento del O
Viento: O 9 km/h
Temperatura: 20°C
Rocío: 14°C
Humedad: 69%
Barómetro: 1013 hPa
Clouds: Parcialmente nuboso
Visibility: 10 km
Cloud details: Parcialmente nuboso 1676 m
2018/05/24 21:30 LEMG 242130Z 28005KT 9999 SCT055 20/14 Q1013 NOSIG
 
LEZL - Sevilla (civ/Mil, Spain
Distance from station: S 318km
Actualización: 24/05/2018 23:30
Few Clouds
Few Clouds
 Viento del S
Viento: S 7 km/h
Temperatura: 16°C
Rocío: 14°C
Humedad: 88%
Barómetro: 1015 hPa
Clouds: Few Clouds
Visibility: 10 km
Cloud details: Few Clouds 701 m
2018/05/24 21:30 LEZL 242130Z 19004KT 160V230 9999 FEW023 16/14 Q1015 NOSIG
LEVT - Vitoria, Spain
Distance from station: NO 226km
Actualización: 24/05/2018 23:30
Few Clouds
Few Clouds
 Viento del NNE
Viento: NNE 4 km/h
Temperatura: 15°C
Rocío: 14°C
Humedad: 94%
Barómetro: 1016 hPa
Clouds: Few Clouds
Visibility: 10 km
Cloud details: Few Clouds 2286 m
2018/05/24 21:30 LEVT 242130Z 03002KT 9999 FEW075 15/14 Q1016
 
LEBB - Bilbao/Sondica, Spain
Distance from station: NNO 235km
Actualización: 24/05/2018 23:30
Muy nuboso
Muy nuboso
 Viento del NO
Viento: NO 11 km/h
Temperatura: 18°C
Rocío: 17°C
Humedad: 94%
Barómetro: 1016 hPa
Clouds: Muy nuboso
Visibility: 7 km
Cloud details: Few Clouds 213 m
Parcialmente nuboso 457 m
Muy nuboso 762 m
2018/05/24 21:30 LEBB 242130Z 31006KT 7000 FEW007 SCT015 BKN025 18/17 Q1016 NOSIG
LESO - San Sebastian/Fu, Spain
Distance from station: N 231km
Actualización: 24/05/2018 23:30
Few Clouds
Few Clouds
 Viento del varies
Viento: varies 4 km/h
Temperatura: 18°C
Rocío: 17°C
Humedad: 94%
Barómetro: 1015 hPa
Clouds: Few Clouds
Visibility: 9 km
Cloud details: Few Clouds 244 m
2018/05/24 21:30 LESO 242130Z AUTO VRB02KT 9000 FEW008/// 18/17 Q1015
 
LEVD - Valladolid(Mil/C, Spain
Distance from station: ONO 239km
Actualización: 24/05/2018 21:30
NOT Current
Thunderstorm, Lluvia débil, Showers, Parcialmente nuboso
Thunderstorm, Lluvia débil, Showers, Parcialmente nuboso
 Viento del NNE
Viento: NNE 15 km/h
Temperatura: 17°C
Rocío: 13°C
Humedad: 77%
Barómetro: 1013 hPa
Resumen: Thunderstorm, Lluvia débil, Showers
Clouds: Parcialmente nuboso
Visibility: 10 km
Cloud details: Few Clouds 1433 m
Parcialmente nuboso 1554 m
2018/05/24 19:30 LEVD 241930Z 02008KT 9999 TS -SHRA FEW047 SCT051CB 17/13 Q1013
LESA - Salamanca (civ/M, Spain
Distance from station: ONO 349km
Actualización: 24/05/2018 20:00
NOT Current
Light thunderstorm, Lluvia, Parcialmente nuboso
Light thunderstorm, Lluvia, Parcialmente nuboso
 Viento del NE
Viento: NE 24 km/h
Temperatura: 19°C
Rocío: 13°C
Humedad: 68%
Barómetro: 1011 hPa
Resumen: Light thunderstorm, Lluvia
Clouds: Parcialmente nuboso
Visibility: 10 km
Cloud details: Parcialmente nuboso 914 m
2018/05/24 18:00 LESA 241800Z 05013KT 020V080 9999 -TSRA SCT030CB 19/13 Q1011
 
LEXJ - Santander/Paraya, Spain
Distance from station: NNO 247km
Actualización: 24/05/2018 23:30
Parcialmente nuboso
Parcialmente nuboso
 Viento del calm
Viento: Calma
Temperatura: 16°C
Rocío: 16°C
Humedad: 100%
Barómetro: 1016 hPa
Clouds: Parcialmente nuboso
Visibility: 10 km
Cloud details: Few Clouds 488 m
Parcialmente nuboso 1097 m
2018/05/24 21:30 LEXJ 242130Z 00000KT 9999 FEW016 SCT036 16/16 Q1016
LEAS - Asturias/Aviles, Spain
Distance from station: NO 214km
Actualización: 24/05/2018 23:30
Lluvia débil, Mist, Muy nuboso
Lluvia débil, Mist, Muy nuboso
 Viento del varies
Viento: varies 4 km/h
Temperatura: 16°C
Rocío: 16°C
Humedad: 100%
Barómetro: 1016 hPa
Resumen: Lluvia débil, Mist
Clouds: Muy nuboso
Visibility: 3 km
Cloud details: Few Clouds 61 m
Muy nuboso 213 m
2018/05/24 21:30 LEAS 242130Z VRB02KT 2500 -RA BR FEW002 BKN007 16/16 Q1016 TEMPO 4000
 
LECO - La Coruna/Alvedr, Spain
Distance from station: ONO 222km
Actualización: 24/05/2018 23:30
Despejado
Despejado
 Viento del N
Viento: N 7 km/h
Temperatura: 17°C
Rocío: 13°C
Humedad: 77%
Barómetro: 1015 hPa
Resumen: Despejado
Visibility: greater than 10 km
2018/05/24 21:30 LECO 242130Z 01004KT 300V080 CAVOK 17/13 Q1015 NOSIG
LEVX - Vigo/Peinador, Spain
Distance from station: O 214km
Actualización: 24/05/2018 23:30
Despejado
Despejado
 Viento del NNE
Viento: NNE 7 km/h
Temperatura: 16°C
Rocío: 15°C
Humedad: 94%
Barómetro: 1013 hPa
Resumen: Despejado
Visibility: greater than 10 km
2018/05/24 21:30 LEVX 242130Z 02004KT 350V060 CAVOK 16/15 Q1013 TEMPO SHRA SCT030TCU